createdAt,value
2023-05-14T00:00:50.994Z,12.30
2023-05-14T00:01:50.984Z,12.70
2023-05-14T00:02:50.989Z,12.10
2023-05-14T00:03:50.984Z,11.60
2023-05-14T00:04:50.906Z,12.60
2023-05-14T00:05:50.839Z,13.20
2023-05-14T00:06:50.868Z,12.70
2023-05-14T00:07:50.858Z,13.40
2023-05-14T00:08:50.827Z,13.50
2023-05-14T00:09:50.793Z,13.30
2023-05-14T00:10:50.838Z,12.50
2023-05-14T00:11:50.773Z,13.10
2023-05-14T00:12:50.788Z,12.70
2023-05-14T00:13:50.773Z,13.20
2023-05-14T00:14:50.801Z,12.20
2023-05-14T00:15:50.835Z,13.50
2023-05-14T00:16:50.743Z,13.30
2023-05-14T00:17:50.747Z,12.60
2023-05-14T00:18:50.778Z,12.00
2023-05-14T00:19:50.720Z,12.30
2023-05-14T00:20:50.703Z,11.90
2023-05-14T00:21:50.673Z,12.80
2023-05-14T00:22:50.682Z,13.90
2023-05-14T00:23:50.655Z,12.90
2023-05-14T00:24:50.656Z,13.80
2023-05-14T00:25:50.657Z,13.00
2023-05-14T00:26:50.654Z,14.30
2023-05-14T00:27:50.600Z,14.20
2023-05-14T00:28:50.613Z,14.30
2023-05-14T00:29:50.604Z,14.00
2023-05-14T00:30:50.610Z,14.70
2023-05-14T00:31:50.870Z,14.30
2023-05-14T00:32:50.663Z,13.50
2023-05-14T00:33:50.541Z,14.60
2023-05-14T00:34:50.546Z,14.00
2023-05-14T00:35:50.531Z,15.40
2023-05-14T00:36:50.532Z,14.50
2023-05-14T00:37:50.526Z,14.30
2023-05-14T00:38:50.516Z,15.10
2023-05-14T00:39:50.479Z,13.90
2023-05-14T00:40:50.487Z,13.40
2023-05-14T00:41:50.459Z,13.30
2023-05-14T00:42:50.478Z,13.10
2023-05-14T00:43:50.458Z,13.90
2023-05-14T00:44:50.465Z,14.70
2023-05-14T00:45:50.420Z,13.90
2023-05-14T00:46:50.460Z,14.10
2023-05-14T00:47:50.507Z,14.70
2023-05-14T00:48:50.411Z,16.40
2023-05-14T00:49:50.384Z,15.50
2023-05-14T00:50:50.381Z,14.70
2023-05-14T00:51:50.349Z,14.20
2023-05-14T00:52:50.362Z,13.40
2023-05-14T00:53:50.328Z,15.30
2023-05-14T00:54:50.358Z,14.70
2023-05-14T00:55:50.345Z,13.30
2023-05-14T00:56:50.335Z,14.30
2023-05-14T00:57:50.287Z,14.30
2023-05-14T00:58:50.304Z,14.40
2023-05-14T00:59:50.260Z,13.30
2023-05-14T01:00:50.322Z,13.90
2023-05-14T01:01:50.259Z,14.60
2023-05-14T01:02:50.301Z,14.80
2023-05-14T01:03:50.333Z,14.70
2023-05-14T01:04:50.226Z,13.70
2023-05-14T01:05:50.199Z,13.30
2023-05-14T01:06:50.206Z,14.10
2023-05-14T01:07:50.193Z,14.00
2023-05-14T01:08:50.183Z,15.30
2023-05-14T01:09:50.173Z,15.10
2023-05-14T01:10:50.166Z,15.00
2023-05-14T01:11:50.144Z,15.70
2023-05-14T01:12:50.146Z,15.30
2023-05-14T01:13:50.132Z,14.30
2023-05-14T01:14:50.119Z,15.40
2023-05-14T01:15:50.083Z,14.80
2023-05-14T01:16:50.161Z,15.30
2023-05-14T01:17:50.097Z,14.60
2023-05-14T01:18:50.134Z,14.80
2023-05-14T01:19:50.072Z,15.30
2023-05-14T01:20:50.051Z,14.40
2023-05-14T01:21:50.025Z,14.30
2023-05-14T01:22:50.059Z,13.50
2023-05-14T01:23:50.004Z,12.80
2023-05-14T01:24:50.008Z,13.30
2023-05-14T01:25:50.033Z,13.30
2023-05-14T01:26:49.996Z,14.00
2023-05-14T01:27:49.958Z,14.70
2023-05-14T01:28:49.967Z,14.80
2023-05-14T01:29:49.984Z,15.30
2023-05-14T01:30:49.920Z,14.90
2023-05-14T01:31:49.968Z,14.60
2023-05-14T01:32:49.998Z,14.90
2023-05-14T01:33:49.892Z,14.30
2023-05-14T01:34:49.904Z,14.60
2023-05-14T01:35:49.880Z,14.40
2023-05-14T01:36:49.894Z,13.40
2023-05-14T01:37:49.869Z,15.10
2023-05-14T01:38:49.893Z,15.40
2023-05-14T01:39:49.843Z,15.90
2023-05-14T01:40:49.850Z,15.50
2023-05-14T01:41:49.809Z,16.40
2023-05-14T01:42:49.872Z,16.00
2023-05-14T01:43:49.828Z,16.00
2023-05-14T01:44:49.803Z,15.90
2023-05-14T01:45:49.798Z,16.10
2023-05-14T01:46:49.782Z,15.60
2023-05-14T01:47:49.792Z,15.70
2023-05-14T01:48:49.751Z,13.60
2023-05-14T01:49:49.736Z,13.80
2023-05-14T01:50:49.737Z,15.20
2023-05-14T01:51:49.695Z,14.60
2023-05-14T01:52:49.706Z,15.90
2023-05-14T01:53:49.672Z,16.00
2023-05-14T01:54:49.696Z,16.80
2023-05-14T01:55:49.847Z,15.30
2023-05-14T01:56:49.666Z,15.50
2023-05-14T01:57:49.654Z,15.30
2023-05-14T01:58:49.646Z,15.30
2023-05-14T01:59:49.607Z,15.10
2023-05-14T02:00:49.637Z,16.10
2023-05-14T02:01:49.661Z,16.50
2023-05-14T02:02:49.631Z,15.60
2023-05-14T02:03:49.576Z,15.40
2023-05-14T02:04:49.581Z,16.50
2023-05-14T02:05:49.544Z,15.70
2023-05-14T02:06:49.563Z,14.70
2023-05-14T02:07:49.549Z,14.50
2023-05-14T02:08:49.539Z,14.20
2023-05-14T02:09:49.502Z,14.60
2023-05-14T02:10:49.510Z,14.80
2023-05-14T02:11:49.485Z,15.60
2023-05-14T02:12:49.490Z,15.20
2023-05-14T02:13:49.472Z,15.70
2023-05-14T02:14:49.499Z,15.70
2023-05-14T02:15:49.467Z,15.70
2023-05-14T02:16:49.480Z,15.70
2023-05-14T02:17:49.449Z,16.80
2023-05-14T02:18:49.473Z,15.70
2023-05-14T02:19:49.421Z,16.00
2023-05-14T02:20:49.405Z,16.20
2023-05-14T02:21:49.380Z,15.80
2023-05-14T02:22:49.414Z,14.80
2023-05-14T02:23:49.372Z,16.00
2023-05-14T02:24:49.359Z,15.70
2023-05-14T02:25:49.376Z,15.20
2023-05-14T02:26:49.362Z,14.90
2023-05-14T02:27:49.314Z,14.50
2023-05-14T02:28:49.318Z,15.10
2023-05-14T02:29:49.289Z,14.50
2023-05-14T02:30:49.298Z,15.20
2023-05-14T02:31:49.452Z,16.70
2023-05-14T02:32:49.404Z,16.50
2023-05-14T02:33:49.239Z,16.40
2023-05-14T02:34:49.279Z,17.00
2023-05-14T02:35:49.235Z,17.80
2023-05-14T02:36:49.228Z,15.70
2023-05-14T02:37:49.221Z,16.30
2023-05-14T02:38:49.213Z,15.90
2023-05-14T02:39:49.230Z,15.30
2023-05-14T02:40:49.190Z,14.50
2023-05-14T02:41:49.167Z,14.80
2023-05-14T02:42:49.173Z,14.40
2023-05-14T02:43:49.170Z,15.10
2023-05-14T02:44:49.163Z,16.00
2023-05-14T02:45:49.113Z,14.70
2023-05-14T02:46:49.157Z,14.70
2023-05-14T02:47:49.144Z,14.80
2023-05-14T02:48:49.120Z,15.90
2023-05-14T02:49:49.282Z,15.50
2023-05-14T02:50:49.082Z,15.00
2023-05-14T02:51:49.080Z,14.40
2023-05-14T02:52:49.074Z,14.20
2023-05-14T02:53:49.031Z,14.90
2023-05-14T02:54:49.041Z,15.10
2023-05-14T02:55:49.043Z,16.40
2023-05-14T02:56:49.016Z,15.70
2023-05-14T02:57:48.996Z,15.00
2023-05-14T02:58:49.001Z,16.20
2023-05-14T02:59:48.979Z,14.90
2023-05-14T03:00:48.991Z,14.10
2023-05-14T03:01:48.960Z,14.40
2023-05-14T03:02:49.022Z,13.80
2023-05-14T03:03:48.932Z,14.40
2023-05-14T03:06:16.590Z,14.20
2023-05-14T03:06:21.892Z,15.40
2023-05-14T03:07:21.900Z,18.20
2023-05-14T03:08:21.860Z,15.80
2023-05-14T03:09:21.872Z,15.50
2023-05-14T03:10:22.036Z,14.80
2023-05-14T03:11:21.855Z,13.70
2023-05-14T03:12:21.804Z,14.20
2023-05-14T03:13:21.830Z,14.40
2023-05-14T03:14:21.810Z,14.30
2023-05-14T03:15:21.792Z,15.70
2023-05-14T03:16:21.814Z,16.90
2023-05-14T03:17:21.815Z,16.70
2023-05-14T03:18:21.734Z,16.40
2023-05-14T03:19:21.773Z,16.20
2023-05-14T03:20:21.957Z,16.00
2023-05-14T03:21:21.738Z,15.90
2023-05-14T03:22:21.693Z,16.10
2023-05-14T03:23:21.727Z,15.80
2023-05-14T03:24:21.683Z,15.10
2023-05-14T03:25:21.722Z,15.00
2023-05-14T03:26:21.692Z,15.50
2023-05-14T03:27:21.671Z,17.70
2023-05-14T03:28:21.632Z,17.20
2023-05-14T03:29:21.645Z,16.30
2023-05-14T03:30:22.043Z,16.40
2023-05-14T03:31:21.757Z,16.50
2023-05-14T03:32:21.629Z,19.00
2023-05-14T03:33:21.613Z,18.00
2023-05-14T03:34:21.584Z,17.60
2023-05-14T03:35:21.576Z,18.80
2023-05-14T03:36:21.546Z,18.20
2023-05-14T03:37:21.589Z,18.30
2023-05-14T03:38:21.522Z,18.20
2023-05-14T03:39:21.547Z,18.80
2023-05-14T03:40:21.969Z,19.10
2023-05-14T03:41:21.526Z,19.80
2023-05-14T03:42:21.486Z,19.40
2023-05-14T03:43:21.516Z,19.30
2023-05-14T03:44:21.457Z,19.10
2023-05-14T03:45:21.476Z,18.10
2023-05-14T03:46:21.437Z,18.50
2023-05-14T03:47:21.455Z,17.40
2023-05-14T03:48:21.525Z,19.00
2023-05-14T03:49:21.458Z,19.50
2023-05-14T03:50:21.568Z,19.90
2023-05-14T03:51:21.407Z,20.80
2023-05-14T03:52:21.373Z,20.30
2023-05-14T03:53:21.428Z,20.70
2023-05-14T03:54:21.351Z,21.50
2023-05-14T03:55:21.403Z,19.60
2023-05-14T03:56:21.367Z,21.60
2023-05-14T03:57:21.389Z,22.40
2023-05-14T03:58:21.332Z,21.40
2023-05-14T03:59:21.320Z,20.80
2023-05-14T04:00:21.607Z,22.30
2023-05-14T04:01:21.345Z,22.00
2023-05-14T04:02:21.298Z,22.60
2023-05-14T04:03:21.402Z,22.40
2023-05-14T04:04:21.316Z,21.70
2023-05-14T04:05:21.232Z,21.70
2023-05-14T04:06:21.260Z,21.30
2023-05-14T04:07:21.235Z,19.30
2023-05-14T04:08:21.234Z,20.90
2023-05-14T04:09:21.191Z,19.00
2023-05-14T04:10:21.251Z,19.80
2023-05-14T04:11:21.171Z,19.80
2023-05-14T04:12:21.179Z,20.10
2023-05-14T04:13:21.195Z,21.40
2023-05-14T04:14:21.164Z,23.10
2023-05-14T04:15:21.137Z,23.40
2023-05-14T04:16:21.262Z,21.90
2023-05-14T04:17:21.107Z,23.00
2023-05-14T04:18:21.113Z,20.70
2023-05-14T04:19:21.121Z,20.90
2023-05-14T04:20:21.153Z,20.10
2023-05-14T04:21:21.057Z,20.40
2023-05-14T04:22:21.083Z,22.90
2023-05-14T04:23:21.036Z,20.30
2023-05-14T04:24:21.068Z,21.10
2023-05-14T04:25:21.030Z,20.10
2023-05-14T04:26:21.032Z,19.90
2023-05-14T04:27:21.024Z,20.10
2023-05-14T04:28:21.020Z,18.60
2023-05-14T04:29:20.978Z,17.10
2023-05-14T04:30:21.166Z,17.10
2023-05-14T04:31:21.009Z,19.00
2023-05-14T04:32:21.014Z,17.50
2023-05-14T04:33:20.928Z,16.10
2023-05-14T04:34:20.974Z,16.10
2023-05-14T04:35:23.355Z,16.70
2023-05-14T04:36:20.915Z,18.70
2023-05-14T04:37:20.928Z,18.90
2023-05-14T04:38:20.898Z,19.50
2023-05-14T04:39:20.866Z,17.90
2023-05-14T04:40:20.883Z,17.10
2023-05-14T04:41:20.853Z,17.00
2023-05-14T04:42:20.853Z,16.30
2023-05-14T04:43:20.858Z,16.60
2023-05-14T04:44:20.855Z,16.80
2023-05-14T04:45:20.801Z,16.90
2023-05-14T04:46:20.871Z,17.10
2023-05-14T04:47:20.804Z,17.70
2023-05-14T04:48:20.795Z,16.70
2023-05-14T04:49:20.801Z,15.70
2023-05-14T04:50:20.839Z,16.20
2023-05-14T04:51:20.729Z,15.60
2023-05-14T04:52:20.747Z,14.90
2023-05-14T04:53:20.716Z,14.70
2023-05-14T04:54:20.767Z,16.90
2023-05-14T04:55:20.726Z,17.00
2023-05-14T04:56:20.705Z,18.50
2023-05-14T04:57:20.668Z,18.70
2023-05-14T04:58:20.701Z,20.60
2023-05-14T04:59:20.647Z,19.60
2023-05-14T05:00:20.758Z,20.40
2023-05-14T05:01:20.698Z,19.30
2023-05-14T05:02:20.646Z,19.60
2023-05-14T05:03:20.762Z,18.40
2023-05-14T05:04:20.635Z,19.10
2023-05-14T05:05:20.588Z,19.10
2023-05-14T05:06:20.628Z,18.00
2023-05-14T05:07:20.580Z,17.40
2023-05-14T05:08:20.583Z,17.00
2023-05-14T05:09:20.580Z,17.70
2023-05-14T05:10:20.582Z,18.30
2023-05-14T05:11:20.529Z,15.70
2023-05-14T05:12:20.536Z,15.00
2023-05-14T05:13:20.534Z,13.20
2023-05-14T05:14:20.535Z,12.90
2023-05-14T05:15:20.489Z,12.60
2023-05-14T05:16:20.512Z,12.70
2023-05-14T05:17:20.526Z,12.50
2023-05-14T05:18:20.460Z,12.10
2023-05-14T05:19:26.557Z,11.70
2023-05-14T05:20:20.499Z,12.60
2023-05-14T05:21:20.426Z,12.00
2023-05-14T05:22:20.431Z,11.70
2023-05-14T05:23:20.400Z,12.90
2023-05-14T05:24:20.471Z,12.10
2023-05-14T05:25:20.410Z,11.70
2023-05-14T05:26:20.392Z,13.00
2023-05-14T05:27:20.360Z,12.00
2023-05-14T05:28:20.363Z,11.20
2023-05-14T05:29:20.350Z,11.40
2023-05-14T05:30:20.386Z,11.00
2023-05-14T05:31:20.380Z,12.10
2023-05-14T05:32:20.334Z,11.10
2023-05-14T05:33:20.298Z,10.10
2023-05-14T05:34:20.302Z,10.10
2023-05-14T05:35:20.264Z,9.90
2023-05-14T05:36:20.281Z,9.40
2023-05-14T05:37:20.274Z,9.80
2023-05-14T05:38:20.257Z,9.70
2023-05-14T05:39:20.224Z,9.60
2023-05-14T05:40:20.240Z,9.50
2023-05-14T05:41:20.201Z,10.00
2023-05-14T05:42:20.226Z,9.60
2023-05-14T05:43:20.201Z,9.20
2023-05-14T05:44:20.192Z,9.50
2023-05-14T05:45:20.178Z,9.10
2023-05-14T05:46:20.229Z,8.90
2023-05-14T05:47:20.150Z,9.10
2023-05-14T05:48:20.145Z,10.00
2023-05-14T05:49:20.142Z,9.40
2023-05-14T05:50:20.228Z,9.50
2023-05-14T05:51:20.086Z,9.30
2023-05-14T05:52:20.110Z,9.70
2023-05-14T05:53:20.085Z,8.80
2023-05-14T05:54:20.084Z,9.10
2023-05-14T05:55:20.086Z,9.10
2023-05-14T05:56:20.065Z,9.40
2023-05-14T05:57:20.032Z,9.30
2023-05-14T05:58:20.051Z,9.70
2023-05-14T05:59:20.008Z,9.80
2023-05-14T06:00:20.031Z,9.60
2023-05-14T06:01:20.010Z,9.60
2023-05-14T06:02:20.086Z,9.80
2023-05-14T06:03:20.008Z,9.90
2023-05-14T06:04:19.974Z,9.70
2023-05-14T06:05:20.032Z,10.30
2023-05-14T06:06:19.957Z,9.50
2023-05-14T06:07:19.941Z,10.40
2023-05-14T06:08:19.940Z,10.30
2023-05-14T06:09:19.895Z,11.60
2023-05-14T06:10:19.909Z,10.40
2023-05-14T06:11:19.878Z,10.00
2023-05-14T06:12:19.891Z,10.10
2023-05-14T06:13:19.886Z,10.00
2023-05-14T06:14:19.867Z,10.20
2023-05-14T06:15:19.856Z,10.30
2023-05-14T06:16:19.893Z,10.40
2023-05-14T06:17:19.852Z,10.90
2023-05-14T06:18:19.822Z,10.30
2023-05-14T06:19:19.934Z,10.60
2023-05-14T06:20:19.802Z,10.50
2023-05-14T06:21:19.836Z,10.50
2023-05-14T06:22:19.778Z,11.40
2023-05-14T06:23:19.748Z,11.30
2023-05-14T06:24:19.758Z,10.90
2023-05-14T06:25:19.746Z,11.20
2023-05-14T06:26:19.955Z,11.20
2023-05-14T06:27:19.705Z,12.10
2023-05-14T06:28:19.731Z,10.80
2023-05-14T06:29:19.690Z,11.10
2023-05-14T06:30:19.707Z,11.90
2023-05-14T06:31:19.719Z,11.60
2023-05-14T06:32:19.748Z,11.60
2023-05-14T06:33:20.630Z,15.20
2023-05-14T06:34:19.661Z,11.70
2023-05-14T06:35:19.626Z,12.50
2023-05-14T06:36:19.636Z,12.80
2023-05-14T06:37:19.648Z,11.30
2023-05-14T06:38:19.621Z,12.40
2023-05-14T06:39:19.571Z,11.80
2023-05-14T06:40:19.584Z,12.70
2023-05-14T06:41:19.563Z,11.10
2023-05-14T06:42:19.573Z,12.20
2023-05-14T06:43:19.649Z,13.00
2023-05-14T06:44:19.554Z,12.10
2023-05-14T06:45:19.531Z,12.20
2023-05-14T06:46:19.525Z,11.10
2023-05-14T06:47:19.488Z,10.90
2023-05-14T06:48:19.656Z,10.80
2023-05-14T06:49:19.497Z,11.10
2023-05-14T06:50:19.484Z,10.40
2023-05-14T06:51:19.462Z,11.20
2023-05-14T06:52:19.456Z,11.30
2023-05-14T06:53:19.429Z,11.50
2023-05-14T06:54:19.442Z,10.60
2023-05-14T06:55:19.432Z,11.10
2023-05-14T06:56:19.422Z,9.80
2023-05-14T06:57:19.380Z,10.10
2023-05-14T06:58:19.404Z,10.30
2023-05-14T06:59:19.367Z,10.20
2023-05-14T07:00:19.377Z,10.20
2023-05-14T07:01:19.385Z,10.40
2023-05-14T07:02:19.353Z,10.20
2023-05-14T07:03:19.319Z,10.30
2023-05-14T07:04:19.432Z,10.60
2023-05-14T07:05:19.298Z,11.70
2023-05-14T07:06:19.309Z,10.10
2023-05-14T07:07:19.309Z,9.90
2023-05-14T07:08:19.290Z,10.10
2023-05-14T07:09:19.248Z,10.00
2023-05-14T07:10:19.263Z,11.10
2023-05-14T07:11:19.275Z,12.30
2023-05-14T07:12:19.253Z,10.20
2023-05-14T07:13:19.223Z,10.20
2023-05-14T07:14:19.217Z,10.60
2023-05-14T07:15:19.199Z,9.50
2023-05-14T07:16:19.197Z,10.50
2023-05-14T07:17:19.213Z,10.50
2023-05-14T07:18:19.186Z,10.00
2023-05-14T07:19:19.252Z,12.30
2023-05-14T07:20:19.159Z,9.80
2023-05-14T07:21:19.158Z,10.00
2023-05-14T07:22:19.142Z,9.40
2023-05-14T07:23:20.046Z,9.70
2023-05-14T07:24:19.132Z,10.00
2023-05-14T07:25:19.098Z,9.30
2023-05-14T07:26:19.096Z,9.30
2023-05-14T07:27:19.064Z,9.20
2023-05-14T07:28:19.076Z,8.70
2023-05-14T07:29:19.032Z,8.80
2023-05-14T07:30:19.063Z,9.00
2023-05-14T07:31:19.077Z,9.60
2023-05-14T07:32:19.023Z,9.70
2023-05-14T07:33:19.005Z,8.50
2023-05-14T07:34:19.017Z,9.10
2023-05-14T07:35:18.970Z,8.50
2023-05-14T07:36:19.108Z,8.80
2023-05-14T07:37:18.973Z,8.80
2023-05-14T07:38:18.965Z,8.80
2023-05-14T07:39:18.925Z,8.80
2023-05-14T07:40:18.936Z,8.30
2023-05-14T07:41:18.909Z,8.90
2023-05-14T07:42:31.638Z,7.80
2023-05-14T07:43:18.902Z,8.00
2023-05-14T07:44:18.894Z,7.30
2023-05-14T07:45:18.852Z,7.70
2023-05-14T07:46:18.880Z,9.70
2023-05-14T07:47:18.866Z,7.40
2023-05-14T07:48:18.873Z,7.00
2023-05-14T07:49:18.882Z,7.70
2023-05-14T07:50:18.848Z,7.10
2023-05-14T07:51:18.852Z,8.50
2023-05-14T07:52:18.822Z,7.40
2023-05-14T07:53:18.781Z,7.30
2023-05-14T07:54:18.784Z,8.30
2023-05-14T07:55:18.773Z,7.40
2023-05-14T07:56:18.760Z,7.20
2023-05-14T07:57:18.734Z,6.80
2023-05-14T07:58:18.744Z,7.60
2023-05-14T07:59:18.707Z,6.90
2023-05-14T08:00:18.792Z,7.20
2023-05-14T08:01:18.721Z,7.10
2023-05-14T08:02:18.752Z,6.10
2023-05-14T08:03:18.785Z,6.40
2023-05-14T08:04:18.814Z,7.40
2023-05-14T08:05:18.653Z,6.20
2023-05-14T08:06:18.654Z,6.90
2023-05-14T08:07:18.642Z,6.80
2023-05-14T08:08:18.637Z,7.10
2023-05-14T08:09:18.610Z,7.00
2023-05-14T08:10:18.622Z,7.10
2023-05-14T08:11:18.661Z,6.80
2023-05-14T08:12:18.602Z,6.20
2023-05-14T08:13:18.633Z,6.50
2023-05-14T08:14:18.558Z,6.80
2023-05-14T08:15:18.559Z,6.90
2023-05-14T08:16:18.549Z,6.20
2023-05-14T08:17:18.563Z,6.40
2023-05-14T08:18:18.531Z,6.30
2023-05-14T08:19:18.649Z,6.50
2023-05-14T08:20:18.486Z,6.50
2023-05-14T08:21:18.496Z,6.50
2023-05-14T08:22:18.465Z,6.20
2023-05-14T08:23:18.537Z,6.40
2023-05-14T08:24:18.439Z,6.30
2023-05-14T08:25:18.466Z,6.00
2023-05-14T08:26:18.425Z,6.00
2023-05-14T08:27:18.435Z,5.90
2023-05-14T08:28:18.405Z,5.60
2023-05-14T08:29:18.417Z,6.20
2023-05-14T08:30:18.389Z,6.20
2023-05-14T08:31:18.483Z,7.10
2023-05-14T08:32:23.307Z,6.20
2023-05-14T08:33:18.374Z,6.00
2023-05-14T08:34:18.351Z,5.30
2023-05-14T08:35:18.352Z,4.90
2023-05-14T08:36:18.322Z,4.80
2023-05-14T08:37:18.335Z,5.10
2023-05-14T08:38:18.321Z,5.50
2023-05-14T08:39:18.318Z,5.20
2023-05-14T08:40:18.308Z,5.00
2023-05-14T08:41:18.286Z,4.80
2023-05-14T08:42:18.260Z,5.10
2023-05-14T08:43:18.310Z,5.10
2023-05-14T08:44:18.230Z,5.00
2023-05-14T08:45:18.254Z,5.00
2023-05-14T08:46:18.222Z,5.10
2023-05-14T08:47:18.231Z,5.10
2023-05-14T08:48:18.260Z,5.20
2023-05-14T08:49:18.226Z,4.70
2023-05-14T08:50:18.933Z,4.70
2023-05-14T08:51:18.188Z,5.10
2023-05-14T08:52:18.175Z,4.80
2023-05-14T08:53:18.165Z,5.50
2023-05-14T08:54:18.205Z,4.90
2023-05-14T08:55:18.156Z,5.40
2023-05-14T08:56:18.106Z,4.90
2023-05-14T08:57:18.112Z,5.20
2023-05-14T08:58:18.087Z,5.10
2023-05-14T08:59:18.094Z,4.60
2023-05-14T09:00:18.065Z,4.40
2023-05-14T09:01:18.101Z,4.70
2023-05-14T09:02:18.040Z,4.00
2023-05-14T09:03:18.072Z,4.60
2023-05-14T09:04:18.052Z,3.80
2023-05-14T09:05:18.057Z,4.10
2023-05-14T09:06:17.992Z,4.10
2023-05-14T09:07:18.034Z,4.00
2023-05-14T09:08:17.969Z,4.00
2023-05-14T09:09:17.993Z,4.00
2023-05-14T09:10:17.952Z,4.20
2023-05-14T09:11:17.988Z,4.20
2023-05-14T09:12:17.934Z,3.90
2023-05-14T09:13:17.960Z,4.20
2023-05-14T09:14:17.929Z,4.00
2023-05-14T09:15:17.930Z,3.60
2023-05-14T09:16:17.948Z,3.90
2023-05-14T09:17:17.925Z,3.70
2023-05-14T09:18:17.887Z,3.90
2023-05-14T09:19:17.989Z,3.70
2023-05-14T09:20:17.868Z,4.00
2023-05-14T09:21:17.882Z,3.90
2023-05-14T09:22:17.844Z,3.90
2023-05-14T09:23:17.848Z,3.90
2023-05-14T09:24:17.812Z,4.70
2023-05-14T09:25:17.872Z,3.90
2023-05-14T09:26:17.821Z,4.90
2023-05-14T09:27:17.807Z,3.80
2023-05-14T09:28:17.768Z,3.80
2023-05-14T09:29:17.783Z,3.30
2023-05-14T09:30:17.756Z,3.70
2023-05-14T09:31:17.871Z,3.40
2023-05-14T09:32:17.729Z,3.70
2023-05-14T09:33:17.755Z,3.70
2023-05-14T09:34:17.941Z,3.90
2023-05-14T09:35:18.054Z,3.80
2023-05-14T09:36:17.688Z,3.40
2023-05-14T09:37:17.728Z,3.50
2023-05-14T09:38:17.669Z,3.30
2023-05-14T09:39:17.693Z,3.50
2023-05-14T09:40:17.651Z,3.90
2023-05-14T09:41:17.659Z,3.80
2023-05-14T09:42:17.629Z,3.40
2023-05-14T09:43:17.653Z,3.40
2023-05-14T09:44:17.642Z,3.70
2023-05-14T09:45:17.621Z,3.80
2023-05-14T09:46:17.580Z,3.60
2023-05-14T09:47:17.634Z,4.30
2023-05-14T09:48:17.635Z,3.80
2023-05-14T09:49:17.609Z,3.40
2023-05-14T09:50:17.576Z,3.50
2023-05-14T09:51:17.552Z,3.40
2023-05-14T09:52:17.546Z,3.30
2023-05-14T09:53:17.541Z,3.10
2023-05-14T09:54:17.556Z,3.00
2023-05-14T09:55:17.545Z,3.10
2023-05-14T09:56:17.488Z,3.40
2023-05-14T09:57:17.489Z,3.10
2023-05-14T09:58:17.457Z,3.20
2023-05-14T09:59:17.473Z,3.50
2023-05-14T10:00:17.438Z,3.90
2023-05-14T10:01:17.517Z,3.20
2023-05-14T10:02:17.408Z,3.20
2023-05-14T10:03:19.860Z,3.20
2023-05-14T10:04:17.421Z,3.10
2023-05-14T10:05:17.421Z,3.20
2023-05-14T10:06:17.375Z,2.90
2023-05-14T10:07:17.412Z,3.10
2023-05-14T10:08:17.356Z,3.00
2023-05-14T10:09:17.373Z,3.10
2023-05-14T10:10:17.348Z,3.00
2023-05-14T10:11:17.351Z,3.20
2023-05-14T10:12:17.332Z,3.20
2023-05-14T10:13:17.346Z,3.10
2023-05-14T10:14:17.291Z,2.90
2023-05-14T10:15:17.312Z,2.70
2023-05-14T10:16:17.271Z,3.00
2023-05-14T10:17:17.322Z,3.30
2023-05-14T10:18:17.277Z,3.00
2023-05-14T10:19:17.378Z,3.00
2023-05-14T10:20:17.228Z,2.90
2023-05-14T10:21:17.264Z,2.80
2023-05-14T10:22:17.205Z,2.90
2023-05-14T10:23:17.220Z,2.70
2023-05-14T10:24:17.202Z,2.90
2023-05-14T10:25:17.225Z,2.90
2023-05-14T10:26:17.167Z,2.60
2023-05-14T10:27:17.193Z,2.70
2023-05-14T10:28:17.142Z,2.60
2023-05-14T10:29:17.158Z,2.70
2023-05-14T10:30:17.132Z,2.40
2023-05-14T10:31:17.218Z,2.30
2023-05-14T10:32:17.133Z,2.20
2023-05-14T10:33:17.150Z,2.30
2023-05-14T10:34:17.113Z,2.20
2023-05-14T10:35:17.127Z,2.30
2023-05-14T10:36:17.078Z,2.20
2023-05-14T10:37:17.110Z,2.10
2023-05-14T10:38:17.096Z,1.90
2023-05-14T10:39:17.060Z,1.90
2023-05-14T10:40:17.020Z,1.90
2023-05-14T10:41:17.045Z,1.80
2023-05-14T10:42:17.006Z,1.80
2023-05-14T10:43:17.046Z,1.70
2023-05-14T10:44:16.990Z,1.90
2023-05-14T10:45:17.016Z,1.80
2023-05-14T10:46:17.006Z,1.90
2023-05-14T10:47:16.992Z,1.80
2023-05-14T10:48:17.006Z,1.60
2023-05-14T10:49:25.329Z,1.60
2023-05-14T10:50:16.926Z,1.50
2023-05-14T10:51:17.035Z,1.80
2023-05-14T10:52:16.912Z,2.00
2023-05-14T10:53:16.912Z,1.70
2023-05-14T10:54:16.888Z,1.60
2023-05-14T10:55:16.991Z,1.70
2023-05-14T10:56:16.866Z,1.70
2023-05-14T10:57:16.877Z,1.60
2023-05-14T10:58:16.838Z,1.60
2023-05-14T10:59:16.867Z,1.60
2023-05-14T11:00:16.830Z,1.40
2023-05-14T11:01:16.860Z,1.50
2023-05-14T11:02:16.841Z,1.50
2023-05-14T11:03:16.869Z,1.40
2023-05-14T11:04:16.855Z,1.60
2023-05-14T11:05:16.837Z,1.50
2023-05-14T11:06:16.799Z,1.50
2023-05-14T11:07:16.791Z,1.70
2023-05-14T11:08:16.749Z,1.40
2023-05-14T11:09:16.784Z,1.60
2023-05-14T11:10:16.797Z,1.80
2023-05-14T11:11:16.742Z,2.50
2023-05-14T11:12:16.718Z,1.60
2023-05-14T11:13:16.742Z,1.60
2023-05-14T11:14:16.696Z,1.80
2023-05-14T11:15:16.745Z,1.40
2023-05-14T11:16:23.190Z,1.70
2023-05-14T11:17:16.745Z,1.60
2023-05-14T11:18:16.701Z,1.70
2023-05-14T11:19:16.811Z,1.60
2023-05-14T11:20:16.664Z,1.60
2023-05-14T11:21:16.674Z,1.70
2023-05-14T11:22:16.610Z,1.80
2023-05-14T11:23:16.616Z,1.80
2023-05-14T11:24:16.599Z,1.60
2023-05-14T11:25:16.629Z,1.70
2023-05-14T11:26:16.804Z,1.80
2023-05-14T11:27:16.590Z,1.80
2023-05-14T11:28:16.560Z,1.80
2023-05-14T11:29:16.562Z,1.80
2023-05-14T11:30:16.572Z,1.60
2023-05-14T11:31:16.586Z,1.70
2023-05-14T11:32:16.516Z,1.60
2023-05-14T11:33:16.552Z,1.60
2023-05-14T11:34:16.505Z,1.80
2023-05-14T11:35:16.506Z,1.60
2023-05-14T11:36:16.486Z,1.50
2023-05-14T11:37:16.528Z,1.60
2023-05-14T11:38:16.455Z,1.60
2023-05-14T11:39:16.462Z,1.70
2023-05-14T11:40:16.543Z,1.50
2023-05-14T11:41:16.457Z,1.70
2023-05-14T11:42:16.419Z,1.80
2023-05-14T11:43:16.452Z,2.00
2023-05-14T11:44:16.403Z,1.90
2023-05-14T11:45:16.403Z,3.20
2023-05-14T11:46:16.399Z,2.20
2023-05-14T11:47:16.394Z,1.90
2023-05-14T11:48:16.357Z,1.70
2023-05-14T11:49:16.532Z,1.80
2023-05-14T11:50:16.393Z,1.80
2023-05-14T11:51:16.349Z,1.90
2023-05-14T11:52:16.354Z,1.80
2023-05-14T11:53:16.334Z,1.70
2023-05-14T11:54:16.304Z,1.90
2023-05-14T11:55:16.345Z,1.90
2023-05-14T11:56:16.313Z,1.80
2023-05-14T11:57:16.360Z,2.50
2023-05-14T11:58:16.248Z,1.70
2023-05-14T11:59:16.262Z,1.70
2023-05-14T12:00:16.283Z,2.00
2023-05-14T12:01:16.372Z,1.60
2023-05-14T12:02:16.232Z,1.60
2023-05-14T12:03:16.378Z,1.70
2023-05-14T12:04:16.214Z,2.20
2023-05-14T12:05:16.214Z,1.60
2023-05-14T12:06:16.151Z,1.70
2023-05-14T12:07:16.186Z,1.40
2023-05-14T12:08:16.146Z,1.50
2023-05-14T12:09:16.146Z,1.60
2023-05-14T12:10:16.125Z,1.60
2023-05-14T12:11:16.130Z,3.20
2023-05-14T12:12:16.106Z,3.80
2023-05-14T12:13:16.370Z,3.70
2023-05-14T12:14:16.070Z,1.70
2023-05-14T12:15:16.103Z,1.60
2023-05-14T12:16:16.157Z,3.20
2023-05-14T12:17:16.067Z,2.60
2023-05-14T12:18:24.141Z,1.80
2023-05-14T12:19:16.264Z,1.60
2023-05-14T12:20:16.006Z,1.60
2023-05-14T12:21:16.034Z,1.50
2023-05-14T12:22:15.988Z,1.50
2023-05-14T12:23:15.996Z,1.40
2023-05-14T12:24:15.986Z,1.60
2023-05-14T12:25:16.032Z,1.70
2023-05-14T12:26:15.948Z,1.50
2023-05-14T12:27:15.957Z,1.70
2023-05-14T12:28:15.950Z,1.60
2023-05-14T12:29:15.925Z,1.40
2023-05-14T12:30:21.656Z,1.50
2023-05-14T12:31:15.983Z,1.40
2023-05-14T12:32:15.914Z,1.40
2023-05-14T12:33:15.883Z,1.40
2023-05-14T12:34:15.892Z,1.40
2023-05-14T12:35:15.864Z,1.40
2023-05-14T12:36:21.635Z,1.30
2023-05-14T12:37:15.855Z,1.40
2023-05-14T12:38:15.863Z,1.30
2023-05-14T12:39:15.828Z,1.30
2023-05-14T12:40:15.839Z,1.40
2023-05-14T12:41:15.819Z,1.30
2023-05-14T12:42:15.821Z,1.30
2023-05-14T12:43:15.789Z,1.40
2023-05-14T12:44:15.889Z,1.30
2023-05-14T12:45:15.761Z,1.40
2023-05-14T12:46:15.763Z,1.40
2023-05-14T12:47:15.855Z,1.20
2023-05-14T12:48:15.764Z,1.40
2023-05-14T12:49:15.732Z,1.60
2023-05-14T12:50:15.722Z,1.50
2023-05-14T12:51:15.708Z,1.30
2023-05-14T12:53:15.693Z,1.30
2023-05-14T12:54:15.749Z,1.20
2023-05-14T12:55:15.682Z,1.20
2023-05-14T12:56:15.682Z,1.30
2023-05-14T12:57:15.636Z,1.20
2023-05-14T12:58:15.650Z,1.30
2023-05-14T12:59:15.613Z,1.30
2023-05-14T13:00:15.702Z,1.20
2023-05-14T13:01:15.644Z,1.20
2023-05-14T13:02:17.358Z,1.30
2023-05-14T13:03:15.613Z,1.40
2023-05-14T13:04:15.653Z,1.30
2023-05-14T13:05:15.541Z,1.40
2023-05-14T13:06:15.578Z,1.30